createdAt,value
2022-08-07T00:00:24.562Z,10.38
2022-08-07T00:02:51.068Z,10.48
2022-08-07T00:05:20.307Z,10.62
2022-08-07T00:07:47.032Z,10.65
2022-08-07T00:10:27.371Z,10.76
2022-08-07T00:13:01.021Z,10.72
2022-08-07T00:15:38.442Z,10.52
2022-08-07T00:18:19.531Z,10.64
2022-08-07T00:20:51.248Z,10.61
2022-08-07T00:23:18.054Z,10.63
2022-08-07T00:26:00.409Z,10.49
2022-08-07T00:28:33.933Z,10.30
2022-08-07T00:31:01.570Z,10.57
2022-08-07T00:33:32.883Z,10.79
2022-08-07T00:36:00.130Z,10.79
2022-08-07T00:38:31.244Z,10.72
2022-08-07T00:40:58.754Z,10.50
2022-08-07T00:43:59.338Z,10.39
2022-08-07T00:46:12.545Z,10.29
2022-08-07T00:48:42.153Z,10.01
2022-08-07T00:51:09.617Z,10.04
2022-08-07T00:53:39.175Z,10.06
2022-08-07T00:56:17.195Z,10.23
2022-08-07T00:58:47.106Z,10.01
2022-08-07T01:01:16.349Z,10.32
2022-08-07T01:03:55.610Z,10.38
2022-08-07T01:06:26.420Z,10.33
2022-08-07T01:08:53.905Z,10.32
2022-08-07T01:12:05.014Z,10.35
2022-08-07T01:14:09.605Z,10.30
2022-08-07T01:16:37.132Z,10.27
2022-08-07T01:19:18.285Z,10.20
2022-08-07T01:21:46.652Z,9.90
2022-08-07T01:24:13.747Z,9.91
2022-08-07T01:26:40.465Z,9.83
2022-08-07T01:29:07.034Z,9.62
2022-08-07T01:31:42.888Z,9.70
2022-08-07T01:34:14.935Z,9.57
2022-08-07T01:36:41.689Z,9.47
2022-08-07T01:39:10.954Z,9.42
2022-08-07T01:41:38.887Z,9.21
2022-08-07T01:44:07.462Z,9.29
2022-08-07T01:46:34.353Z,9.30
2022-08-07T01:49:01.705Z,9.40
2022-08-07T01:52:01.635Z,9.27
2022-08-07T01:54:32.608Z,9.26
2022-08-07T01:57:20.730Z,9.10
2022-08-07T01:59:56.232Z,9.04
2022-08-07T02:03:11.653Z,9.04
2022-08-07T02:05:48.072Z,8.99
2022-08-07T02:08:06.127Z,8.91
2022-08-07T02:10:36.409Z,8.93
2022-08-07T02:13:09.368Z,8.89
2022-08-07T02:15:37.971Z,8.93
2022-08-07T02:18:05.419Z,8.98
2022-08-07T02:20:34.238Z,8.91
2022-08-07T02:23:02.272Z,9.04
2022-08-07T02:26:10.340Z,8.91
2022-08-07T02:28:24.665Z,8.95
2022-08-07T02:30:54.128Z,9.31
2022-08-07T02:33:21.739Z,9.34
2022-08-07T02:36:26.936Z,9.44
2022-08-07T02:38:38.897Z,9.12
2022-08-07T02:41:05.604Z,8.86
2022-08-07T02:43:38.963Z,9.03
2022-08-07T02:46:06.571Z,9.02
2022-08-07T02:48:33.308Z,8.88
2022-08-07T02:51:03.782Z,8.88
2022-08-07T02:53:38.520Z,8.85
2022-08-07T02:56:12.863Z,8.81
2022-08-07T02:58:47.213Z,8.75
2022-08-07T03:01:18.570Z,8.83
2022-08-07T03:04:03.420Z,8.77
2022-08-07T03:06:34.804Z,8.75
2022-08-07T03:09:02.304Z,8.69
2022-08-07T03:11:32.905Z,8.64
2022-08-07T03:14:05.921Z,8.65
2022-08-07T03:16:32.775Z,8.70
2022-08-07T03:18:59.996Z,8.57
2022-08-07T03:21:27.634Z,8.58
2022-08-07T03:24:20.196Z,8.72
2022-08-07T03:26:58.545Z,8.53
2022-08-07T03:29:28.092Z,8.64
2022-08-07T03:31:55.245Z,8.70
2022-08-07T03:34:22.940Z,8.57
2022-08-07T03:36:54.819Z,8.40
2022-08-07T03:39:45.764Z,8.51
2022-08-07T03:42:12.266Z,8.54
2022-08-07T03:44:39.007Z,8.48
2022-08-07T03:47:10.893Z,8.34
2022-08-07T03:49:41.349Z,8.40
2022-08-07T03:52:22.583Z,8.55
2022-08-07T03:54:54.791Z,8.55
2022-08-07T03:58:35.502Z,8.50
2022-08-07T04:00:11.653Z,8.48
2022-08-07T04:02:41.088Z,8.47
2022-08-07T04:05:08.064Z,8.54
2022-08-07T04:07:42.826Z,8.51
2022-08-07T04:10:15.781Z,8.59
2022-08-07T04:12:46.432Z,8.54
2022-08-07T04:15:14.648Z,8.65
2022-08-07T04:18:57.426Z,8.72
2022-08-07T04:20:29.331Z,8.84
2022-08-07T04:23:01.451Z,8.89
2022-08-07T04:25:29.502Z,8.76
2022-08-07T04:28:00.701Z,9.06
2022-08-07T04:30:43.623Z,9.24
2022-08-07T04:33:15.616Z,9.45
2022-08-07T04:35:44.193Z,9.17
2022-08-07T04:38:17.063Z,9.46
2022-08-07T04:40:52.457Z,9.59
2022-08-07T04:43:53.531Z,9.81
2022-08-07T04:46:25.700Z,9.93
2022-08-07T04:48:55.700Z,10.13
2022-08-07T04:51:28.691Z,10.26
2022-08-07T04:54:17.148Z,10.22
2022-08-07T04:58:16.043Z,10.42
2022-08-07T05:00:11.678Z,10.59
2022-08-07T05:02:48.854Z,10.73
2022-08-07T05:05:53.113Z,10.88
2022-08-07T05:08:59.502Z,10.98
2022-08-07T05:11:19.650Z,11.07
2022-08-07T05:14:52.970Z,11.22
2022-08-07T05:16:52.507Z,11.62
2022-08-07T05:19:20.791Z,11.87
2022-08-07T05:22:01.787Z,12.01
2022-08-07T05:24:30.601Z,12.15
2022-08-07T05:27:23.453Z,12.35
2022-08-07T05:29:56.551Z,12.49
2022-08-07T05:32:24.806Z,12.57
2022-08-07T05:34:51.644Z,12.42
2022-08-07T05:37:25.098Z,12.41
2022-08-07T05:40:05.382Z,12.52
2022-08-07T05:42:40.029Z,12.85
2022-08-07T05:45:26.127Z,13.07
2022-08-07T05:48:02.158Z,13.16
2022-08-07T05:50:30.912Z,13.21
2022-08-07T05:52:57.844Z,13.21
2022-08-07T05:55:25.378Z,13.35
2022-08-07T05:58:12.164Z,13.43
2022-08-07T06:00:39.053Z,13.44
2022-08-07T06:03:07.039Z,13.59
2022-08-07T06:05:34.296Z,13.71
2022-08-07T06:08:14.073Z,13.82
2022-08-07T06:10:52.027Z,13.96
2022-08-07T06:14:13.213Z,14.04
2022-08-07T06:16:08.649Z,14.09
2022-08-07T06:18:37.150Z,14.17
2022-08-07T06:22:16.022Z,14.29
2022-08-07T06:24:46.053Z,14.42
2022-08-07T06:26:39.785Z,14.48
2022-08-07T06:29:08.375Z,14.55
2022-08-07T06:31:46.580Z,14.64
2022-08-07T06:34:20.465Z,14.71
2022-08-07T06:36:47.391Z,14.81
2022-08-07T06:40:15.817Z,14.91
2022-08-07T06:42:05.299Z,14.99
2022-08-07T06:44:34.277Z,15.06
2022-08-07T06:47:12.075Z,15.17
2022-08-07T06:49:51.625Z,15.26
2022-08-07T06:52:31.654Z,15.35
2022-08-07T06:55:34.546Z,15.47
2022-08-07T06:57:56.827Z,15.59
2022-08-07T07:00:24.494Z,15.71
2022-08-07T07:02:54.126Z,15.83
2022-08-07T07:06:02.441Z,15.93
2022-08-07T07:08:18.567Z,16.05
2022-08-07T07:10:56.618Z,16.18
2022-08-07T07:13:41.487Z,16.24
2022-08-07T07:16:19.792Z,16.46
2022-08-07T07:18:50.112Z,16.57
2022-08-07T07:21:27.094Z,16.66
2022-08-07T07:24:11.496Z,16.77
2022-08-07T07:26:39.239Z,16.93
2022-08-07T07:29:56.426Z,17.07
2022-08-07T07:31:57.943Z,17.17
2022-08-07T07:34:31.214Z,17.27
2022-08-07T07:37:05.462Z,17.43
2022-08-07T07:39:52.296Z,17.56
2022-08-07T07:42:25.686Z,17.69
2022-08-07T07:44:59.759Z,17.84
2022-08-07T07:47:26.543Z,17.93
2022-08-07T07:50:35.770Z,18.04
2022-08-07T07:52:41.988Z,18.17
2022-08-07T07:55:09.250Z,18.31
2022-08-07T07:57:52.725Z,18.38
2022-08-07T08:00:29.892Z,18.53
2022-08-07T08:03:08.016Z,18.62
2022-08-07T08:05:42.904Z,18.73
2022-08-07T08:08:34.887Z,18.79
2022-08-07T08:11:02.665Z,18.90
2022-08-07T08:13:36.653Z,18.99
2022-08-07T08:16:20.548Z,19.14
2022-08-07T08:18:53.800Z,19.21
2022-08-07T08:21:56.042Z,19.20
2022-08-07T08:24:46.622Z,19.24
2022-08-07T08:27:16.700Z,19.25
2022-08-07T08:29:55.526Z,19.25
2022-08-07T08:32:25.439Z,19.36
2022-08-07T08:35:05.168Z,19.44
2022-08-07T08:38:00.550Z,19.49
2022-08-07T08:40:33.950Z,19.57
2022-08-07T08:43:16.137Z,19.68
2022-08-07T08:45:59.519Z,19.70
2022-08-07T08:48:36.044Z,19.73
2022-08-07T08:51:49.740Z,19.86
2022-08-07T08:54:06.574Z,19.90
2022-08-07T08:56:38.890Z,19.85
2022-08-07T08:59:14.143Z,19.94
2022-08-07T09:02:01.835Z,19.83
2022-08-07T09:04:44.558Z,19.98
2022-08-07T09:07:16.500Z,20.03
2022-08-07T09:09:56.861Z,20.07
2022-08-07T09:12:34.185Z,20.00
2022-08-07T09:16:23.932Z,20.04
2022-08-07T09:18:05.086Z,20.04
2022-08-07T09:20:57.954Z,20.06
2022-08-07T09:24:52.593Z,19.79
2022-08-07T09:26:33.478Z,20.07
2022-08-07T09:30:06.113Z,20.14
2022-08-07T09:31:56.244Z,20.12
2022-08-07T09:34:27.335Z,20.15
2022-08-07T09:37:02.646Z,20.26
2022-08-07T09:39:54.730Z,20.13
2022-08-07T09:42:33.966Z,20.32
2022-08-07T09:47:50.208Z,20.40
2022-08-07T09:48:14.635Z,20.39
2022-08-07T09:51:03.254Z,20.45
2022-08-07T09:53:41.102Z,20.51
2022-08-07T09:56:34.078Z,20.40
2022-08-07T09:59:14.059Z,20.52
2022-08-07T10:01:53.044Z,20.48
2022-08-07T10:04:32.674Z,20.34
2022-08-07T10:07:02.626Z,20.36
2022-08-07T10:09:58.962Z,20.26
2022-08-07T10:12:52.586Z,20.12
2022-08-07T10:15:22.450Z,19.81
2022-08-07T10:18:06.200Z,19.93
2022-08-07T10:20:32.592Z,20.12
2022-08-07T10:23:01.946Z,20.06
2022-08-07T10:25:42.358Z,20.01
2022-08-07T10:28:23.575Z,19.92
2022-08-07T10:31:06.064Z,19.78
2022-08-07T10:34:05.973Z,19.71
2022-08-07T10:36:48.106Z,19.72
2022-08-07T10:39:25.687Z,19.83
2022-08-07T10:42:31.107Z,19.88
2022-08-07T10:45:12.028Z,19.76
2022-08-07T10:47:54.100Z,19.90
2022-08-07T10:50:28.989Z,20.03
2022-08-07T10:53:05.235Z,20.03
2022-08-07T10:55:43.872Z,20.09
2022-08-07T10:58:16.652Z,20.14
2022-08-07T11:00:50.605Z,20.24
2022-08-07T11:03:52.483Z,20.15
2022-08-07T11:06:41.987Z,20.16
2022-08-07T11:10:07.058Z,20.21
2022-08-07T11:12:18.957Z,20.24
2022-08-07T11:15:09.572Z,20.22
2022-08-07T11:17:56.603Z,20.13
2022-08-07T11:20:49.211Z,20.19
2022-08-07T11:23:36.467Z,20.28
2022-08-07T11:26:21.923Z,20.05
2022-08-07T11:28:55.298Z,20.22
2022-08-07T11:31:26.896Z,20.32
2022-08-07T11:34:00.181Z,20.37
2022-08-07T11:36:30.779Z,20.42
2022-08-07T11:39:19.549Z,20.47
2022-08-07T11:42:00.272Z,20.35
2022-08-07T11:44:52.752Z,20.44
2022-08-07T11:47:58.908Z,20.51
2022-08-07T11:50:57.190Z,20.53
2022-08-07T11:54:00.960Z,20.57
2022-08-07T11:56:53.128Z,20.56
2022-08-07T12:00:10.138Z,20.58
2022-08-07T12:02:52.752Z,20.51
2022-08-07T12:05:28.729Z,20.53
2022-08-07T12:08:08.209Z,20.50
2022-08-07T12:11:08.254Z,20.42
2022-08-07T12:13:50.743Z,20.50
2022-08-07T12:16:30.259Z,20.55
2022-08-07T12:19:21.282Z,20.48
2022-08-07T12:22:35.741Z,20.55
2022-08-07T12:24:38.045Z,20.54
2022-08-07T12:27:17.006Z,20.48
2022-08-07T12:29:56.809Z,20.51
2022-08-07T12:32:23.251Z,20.47
2022-08-07T12:34:53.464Z,20.46
2022-08-07T12:37:28.237Z,20.48
2022-08-07T12:40:44.079Z,20.52
2022-08-07T12:43:00.531Z,20.54
2022-08-07T12:45:33.769Z,20.55
2022-08-07T12:48:27.992Z,20.55
2022-08-07T12:51:13.265Z,20.56
2022-08-07T12:54:37.426Z,20.55
2022-08-07T12:56:54.990Z,20.59
2022-08-07T12:59:33.265Z,20.65
2022-08-07T13:02:11.833Z,20.74
2022-08-07T13:05:14.832Z,20.75
2022-08-07T13:08:12.696Z,20.77
2022-08-07T13:11:08.733Z,20.84
2022-08-07T13:13:46.859Z,20.89
2022-08-07T13:16:32.673Z,20.99
2022-08-07T13:19:18.261Z,20.99
2022-08-07T13:22:19.053Z,21.06
2022-08-07T13:25:01.130Z,21.08
2022-08-07T13:28:13.702Z,21.13
2022-08-07T13:30:41.434Z,21.12
2022-08-07T13:34:31.189Z,21.15
2022-08-07T13:36:28.707Z,21.10
2022-08-07T13:38:55.195Z,21.17
2022-08-07T13:41:54.686Z,21.15
2022-08-07T13:44:25.852Z,21.09
2022-08-07T13:46:56.838Z,21.05
2022-08-07T13:50:33.288Z,21.04
2022-08-07T13:52:26.424Z,21.05
2022-08-07T13:55:06.348Z,21.09
2022-08-07T13:57:37.790Z,21.06
2022-08-07T14:00:07.571Z,21.01
2022-08-07T14:02:49.187Z,21.03
2022-08-07T14:05:21.809Z,21.03
2022-08-07T14:07:59.995Z,21.06
2022-08-07T14:10:32.698Z,21.09
2022-08-07T14:13:02.731Z,21.08
2022-08-07T14:15:31.668Z,21.13
2022-08-07T14:18:28.611Z,21.15
2022-08-07T14:21:07.104Z,21.12
2022-08-07T14:23:59.932Z,21.09
2022-08-07T14:26:32.022Z,21.08
2022-08-07T14:29:08.596Z,21.14
2022-08-07T14:31:56.232Z,21.08
2022-08-07T14:37:16.314Z,21.03
2022-08-07T14:40:16.417Z,21.06
2022-08-07T14:42:33.799Z,21.02
2022-08-07T14:45:21.626Z,20.96
2022-08-07T14:47:49.734Z,20.99
2022-08-07T14:50:21.308Z,20.93
2022-08-07T14:52:50.222Z,20.96
2022-08-07T14:55:17.750Z,21.01
2022-08-07T14:57:58.881Z,20.96
2022-08-07T15:00:31.066Z,20.99
2022-08-07T15:02:58.884Z,21.00
2022-08-07T15:05:26.743Z,20.93
2022-08-07T15:07:54.170Z,20.83
2022-08-07T15:10:26.126Z,21.01
2022-08-07T15:12:58.162Z,21.03
2022-08-07T15:15:29.591Z,21.01
2022-08-07T15:18:02.501Z,21.04
2022-08-07T15:20:38.577Z,21.04
2022-08-07T15:25:15.912Z,21.00
2022-08-07T15:26:20.656Z,20.90
2022-08-07T15:28:55.501Z,20.79
2022-08-07T15:34:15.083Z,20.96
2022-08-07T15:37:06.561Z,21.02
2022-08-07T15:39:56.991Z,20.99
2022-08-07T15:42:48.259Z,21.05
2022-08-07T15:45:55.528Z,21.03
2022-08-07T15:51:12.884Z,21.05
2022-08-07T15:53:58.721Z,21.00
2022-08-07T15:56:35.871Z,20.95
2022-08-07T15:59:16.462Z,21.01
2022-08-07T16:02:02.582Z,20.93
2022-08-07T16:04:31.252Z,20.95
2022-08-07T16:06:59.964Z,20.88
2022-08-07T16:09:52.634Z,20.88
2022-08-07T16:12:31.450Z,20.91
2022-08-07T16:14:59.296Z,20.82
2022-08-07T16:18:02.108Z,20.77
2022-08-07T16:20:34.054Z,20.80
2022-08-07T16:23:05.373Z,20.88
2022-08-07T16:25:52.347Z,20.85
2022-08-07T16:30:07.089Z,20.85
2022-08-07T16:31:12.728Z,20.88
2022-08-07T16:34:09.932Z,20.91
2022-08-07T16:37:02.749Z,20.92
2022-08-07T16:39:40.387Z,20.95
2022-08-07T16:42:34.949Z,20.98
2022-08-07T16:46:33.408Z,20.99
2022-08-07T16:48:09.536Z,20.90
2022-08-07T16:51:21.707Z,20.86
2022-08-07T16:54:02.873Z,20.79
2022-08-07T16:56:37.654Z,20.88
2022-08-07T16:59:19.520Z,20.76
2022-08-07T17:01:58.379Z,20.74
2022-08-07T17:04:25.504Z,20.50
2022-08-07T17:07:03.162Z,20.42
2022-08-07T17:10:07.049Z,20.60
2022-08-07T17:12:38.780Z,20.42
2022-08-07T17:15:15.680Z,20.38
2022-08-07T17:17:48.299Z,20.21
2022-08-07T17:20:29.667Z,20.23
2022-08-07T17:23:11.538Z,20.16
2022-08-07T17:26:02.975Z,20.05
2022-08-07T17:28:50.667Z,19.98
2022-08-07T17:31:25.569Z,19.75
2022-08-07T17:34:18.008Z,19.65
2022-08-07T17:36:59.952Z,19.59
2022-08-07T17:40:05.532Z,19.45
2022-08-07T17:42:59.472Z,19.42
2022-08-07T17:45:30.658Z,19.30
2022-08-07T17:48:12.897Z,19.21
2022-08-07T17:50:47.155Z,19.20
2022-08-07T17:54:00.966Z,19.17
2022-08-07T17:56:29.237Z,18.98
2022-08-07T17:58:56.851Z,18.92
2022-08-07T18:01:48.417Z,18.91
2022-08-07T18:04:35.089Z,19.02
2022-08-07T18:07:22.649Z,18.88
2022-08-07T18:10:05.759Z,18.79
2022-08-07T18:12:52.859Z,18.83
2022-08-07T18:15:22.996Z,18.65
2022-08-07T18:18:47.318Z,18.54
2022-08-07T18:21:03.599Z,18.39
2022-08-07T18:23:50.763Z,18.37
2022-08-07T18:26:44.327Z,18.15
2022-08-07T18:30:04.222Z,18.14
2022-08-07T18:32:08.215Z,17.89
2022-08-07T18:35:00.317Z,17.69
2022-08-07T18:38:55.411Z,17.44
2022-08-07T18:40:42.166Z,17.33
2022-08-07T18:43:11.616Z,17.10
2022-08-07T18:46:24.337Z,17.07
2022-08-07T18:50:30.966Z,17.06
2022-08-07T18:52:35.319Z,16.91
2022-08-07T18:54:42.685Z,16.90
2022-08-07T18:57:30.830Z,16.78
2022-08-07T19:00:32.677Z,16.65
2022-08-07T19:03:16.941Z,16.92
2022-08-07T19:06:04.791Z,16.96
2022-08-07T19:08:49.579Z,16.62
2022-08-07T19:11:36.416Z,16.71
2022-08-07T19:14:17.119Z,16.57
2022-08-07T19:17:06.941Z,16.34
2022-08-07T19:19:53.200Z,16.13
2022-08-07T19:22:36.159Z,16.01
2022-08-07T19:25:06.866Z,16.02
2022-08-07T19:28:29.554Z,15.89
2022-08-07T19:30:56.025Z,15.75
2022-08-07T19:33:15.515Z,15.79
2022-08-07T19:35:51.745Z,15.69
2022-08-07T19:38:19.621Z,15.68
2022-08-07T19:40:50.300Z,15.75
2022-08-07T19:43:48.815Z,15.73
2022-08-07T19:46:19.030Z,15.68
2022-08-07T19:48:53.764Z,15.70
2022-08-07T19:51:51.376Z,15.67
2022-08-07T19:54:31.811Z,15.44
2022-08-07T19:58:02.556Z,15.48
2022-08-07T19:59:47.114Z,15.36
2022-08-07T20:02:19.257Z,15.46
2022-08-07T20:04:49.243Z,15.33
2022-08-07T20:07:23.669Z,15.26
2022-08-07T20:10:36.827Z,15.39
2022-08-07T20:12:51.402Z,15.25
2022-08-07T20:15:22.225Z,15.15
2022-08-07T20:18:01.390Z,15.22
2022-08-07T20:20:31.068Z,15.22
2022-08-07T20:23:00.245Z,15.10
2022-08-07T20:25:29.164Z,14.97
2022-08-07T20:27:58.406Z,14.97
2022-08-07T20:30:30.940Z,14.94
2022-08-07T20:32:57.827Z,14.68
2022-08-07T20:35:33.534Z,14.52
2022-08-07T20:38:00.742Z,14.50
2022-08-07T20:40:32.560Z,14.49
2022-08-07T20:43:01.090Z,14.28
2022-08-07T20:45:33.341Z,14.26
2022-08-07T20:48:28.954Z,14.16
2022-08-07T20:50:58.571Z,13.99
2022-08-07T20:53:26.016Z,13.92
2022-08-07T20:56:12.762Z,13.76
2022-08-07T20:58:46.392Z,13.74
2022-08-07T21:01:19.863Z,13.61
2022-08-07T21:04:13.080Z,13.52
2022-08-07T21:06:36.318Z,13.43
2022-08-07T21:09:14.487Z,13.38
2022-08-07T21:11:50.393Z,13.41
2022-08-07T21:14:33.184Z,13.44
2022-08-07T21:18:02.150Z,13.71
2022-08-07T21:20:00.796Z,14.21
2022-08-07T21:22:34.526Z,14.25
2022-08-07T21:25:01.053Z,14.55
2022-08-07T21:27:46.818Z,14.72
2022-08-07T21:30:15.024Z,14.76
2022-08-07T21:32:49.658Z,14.85
2022-08-07T21:36:04.442Z,14.87
2022-08-07T21:38:27.491Z,14.57
2022-08-07T21:41:09.929Z,14.43
2022-08-07T21:43:57.025Z,14.59
2022-08-07T21:46:42.875Z,14.81
2022-08-07T21:49:21.567Z,15.02
2022-08-07T21:52:16.600Z,14.80
2022-08-07T21:55:02.507Z,14.72
2022-08-07T21:57:52.173Z,14.86
2022-08-07T22:00:25.138Z,14.87
2022-08-07T22:02:59.408Z,14.88
2022-08-07T22:05:44.396Z,14.86
2022-08-07T22:08:18.291Z,14.75
2022-08-07T22:10:46.344Z,14.74
2022-08-07T22:13:14.385Z,14.67
2022-08-07T22:16:39.328Z,14.61
2022-08-07T22:18:54.932Z,14.65
2022-08-07T22:22:01.696Z,14.71
2022-08-07T22:24:23.421Z,14.75
2022-08-07T22:27:04.292Z,14.84
2022-08-07T22:29:54.510Z,14.72
2022-08-07T22:32:42.526Z,14.83
2022-08-07T22:35:11.180Z,14.81
2022-08-07T22:38:03.232Z,14.88
2022-08-07T22:40:34.396Z,14.91
2022-08-07T22:43:12.419Z,14.68
2022-08-07T22:46:21.656Z,14.55
2022-08-07T22:49:02.056Z,14.46
2022-08-07T22:51:48.977Z,14.48
2022-08-07T22:54:16.205Z,14.36
2022-08-07T22:57:03.068Z,14.30
2022-08-07T22:59:49.786Z,14.30
2022-08-07T23:02:41.472Z,14.42
2022-08-07T23:06:09.575Z,14.23
2022-08-07T23:08:24.101Z,14.05
2022-08-07T23:10:50.971Z,13.86
2022-08-07T23:13:48.819Z,13.82
2022-08-07T23:16:54.835Z,13.84
2022-08-07T23:20:03.768Z,14.00
2022-08-07T23:22:39.230Z,14.06
2022-08-07T23:25:17.783Z,14.05
2022-08-07T23:28:22.014Z,13.99
2022-08-07T23:31:06.586Z,13.90
2022-08-07T23:34:33.814Z,13.77
2022-08-07T23:36:38.267Z,13.92
2022-08-07T23:39:09.643Z,14.08
2022-08-07T23:42:05.297Z,14.16
2022-08-07T23:45:04.638Z,14.00
2022-08-07T23:47:42.151Z,14.03
2022-08-07T23:50:19.409Z,13.86
2022-08-07T23:53:08.535Z,13.79
2022-08-07T23:55:52.354Z,13.85
2022-08-07T23:58:36.376Z,13.77
